<?xml version="1.0" encoding="UTF-8" standalone="no" ?>
<gpx xmlns="http://www.topografix.com/GPX/1/1" xmlns:xsi="http://www.w3.org/2001/XMLSchema-instance" xsi:schemaLocation="http://www.topografix.com/GPX/1/1 http://www.topografix.com/GPX/1/1/gpx.xsd" version="1.1" creator="VisuGPX - https://www.visugpx.com">
  <metadata>
    <name>Antony_PleissisRob</name>
  </metadata>
  <trk>
    <name><![CDATA[Antony Plessis]]></name>
    <extensions>
      <line xmlns="http://www.topografix.com/GPX/gpx_style/0/2">
        <color>0000FF</color>
        <width>4</width>
      </line>
    </extensions>
    <trkseg>
      <trkpt lat="48.75303" lon="2.28492">
        <ele>83.3</ele>
        <time>2022-09-25T05:52:05.000Z</time>
      </trkpt>
      <trkpt lat="48.75305" lon="2.28506">
        <ele>85.599998474121</ele>
        <time>2022-09-25T05:52:27.000Z</time>
      </trkpt>
      <trkpt lat="48.75277" lon="2.28558">
        <ele>81.800003051758</ele>
        <time>2022-09-25T05:53:01.000Z</time>
      </trkpt>
      <trkpt lat="48.7525" lon="2.28614">
        <ele>79.599998474121</ele>
        <time>2022-09-25T05:53:32.000Z</time>
      </trkpt>
      <trkpt lat="48.75241" lon="2.28671">
        <ele>79</ele>
        <time>2022-09-25T05:54:02.000Z</time>
      </trkpt>
      <trkpt lat="48.75225" lon="2.28736">
        <ele>77.199996948242</ele>
        <time>2022-09-25T05:54:33.000Z</time>
      </trkpt>
      <trkpt lat="48.75208" lon="2.28799">
        <ele>74.199996948242</ele>
        <time>2022-09-25T05:55:04.000Z</time>
      </trkpt>
      <trkpt lat="48.75184" lon="2.28857">
        <ele>73</ele>
        <time>2022-09-25T05:55:35.000Z</time>
      </trkpt>
      <trkpt lat="48.7516" lon="2.28915">
        <ele>69.400001525879</ele>
        <time>2022-09-25T05:56:07.000Z</time>
      </trkpt>
      <trkpt lat="48.75131" lon="2.2897">
        <ele>68</ele>
        <time>2022-09-25T05:56:40.000Z</time>
      </trkpt>
      <trkpt lat="48.75103" lon="2.29023">
        <ele>67</ele>
        <time>2022-09-25T05:57:12.000Z</time>
      </trkpt>
      <trkpt lat="48.75074" lon="2.29075">
        <ele>66</ele>
        <time>2022-09-25T05:57:43.000Z</time>
      </trkpt>
      <trkpt lat="48.75044" lon="2.29126">
        <ele>65.400001525879</ele>
        <time>2022-09-25T05:58:14.000Z</time>
      </trkpt>
      <trkpt lat="48.75017" lon="2.29177">
        <ele>63.1</ele>
        <time>2022-09-25T05:58:45.000Z</time>
      </trkpt>
      <trkpt lat="48.75015" lon="2.29208">
        <ele>64</ele>
        <time>2022-09-25T06:07:20.000Z</time>
      </trkpt>
      <trkpt lat="48.74999" lon="2.29271">
        <ele>63.799999237061</ele>
        <time>2022-09-25T06:07:52.000Z</time>
      </trkpt>
      <trkpt lat="48.74973" lon="2.29327">
        <ele>61</ele>
        <time>2022-09-25T06:08:29.000Z</time>
      </trkpt>
      <trkpt lat="48.74966" lon="2.29342">
        <ele>60</ele>
        <time>2022-09-25T06:08:42.000Z</time>
      </trkpt>
      <trkpt lat="48.74934" lon="2.2939">
        <ele>55.799999237061</ele>
        <time>2022-09-25T06:09:23.000Z</time>
      </trkpt>
      <trkpt lat="48.7493" lon="2.29408">
        <ele>54.400001525879</ele>
        <time>2022-09-25T06:09:30.000Z</time>
      </trkpt>
      <trkpt lat="48.74964" lon="2.29448">
        <ele>56.200000762939</ele>
        <time>2022-09-25T06:10:17.000Z</time>
      </trkpt>
      <trkpt lat="48.74998" lon="2.29495">
        <ele>58.400001525879</ele>
        <time>2022-09-25T06:10:54.000Z</time>
      </trkpt>
      <trkpt lat="48.75037" lon="2.2953">
        <ele>57.799999237061</ele>
        <time>2022-09-25T06:11:32.000Z</time>
      </trkpt>
      <trkpt lat="48.75072" lon="2.29572">
        <ele>56.799999237061</ele>
        <time>2022-09-25T06:12:10.000Z</time>
      </trkpt>
      <trkpt lat="48.75111" lon="2.29609">
        <ele>56.400001525879</ele>
        <time>2022-09-25T06:12:50.000Z</time>
      </trkpt>
      <trkpt lat="48.75124" lon="2.29637">
        <ele>56.400001525879</ele>
        <time>2022-09-25T06:13:13.000Z</time>
      </trkpt>
      <trkpt lat="48.7516" lon="2.29676">
        <ele>57.400001525879</ele>
        <time>2022-09-25T06:13:51.000Z</time>
      </trkpt>
      <trkpt lat="48.75179" lon="2.29698">
        <ele>58</ele>
        <time>2022-09-25T06:14:17.000Z</time>
      </trkpt>
      <trkpt lat="48.75224" lon="2.29686">
        <ele>60</ele>
        <time>2022-09-25T06:14:56.000Z</time>
      </trkpt>
      <trkpt lat="48.75266" lon="2.29663">
        <ele>61.599998474121</ele>
        <time>2022-09-25T06:15:52.000Z</time>
      </trkpt>
      <trkpt lat="48.75295" lon="2.29667">
        <ele>63.400001525879</ele>
        <time>2022-09-25T06:16:11.000Z</time>
      </trkpt>
      <trkpt lat="48.75337" lon="2.2969">
        <ele>65.800003051758</ele>
        <time>2022-09-25T06:16:37.000Z</time>
      </trkpt>
      <trkpt lat="48.7535" lon="2.29697">
        <ele>65.800003051758</ele>
        <time>2022-09-25T06:17:05.000Z</time>
      </trkpt>
      <trkpt lat="48.75395" lon="2.29706">
        <ele>66.800003051758</ele>
        <time>2022-09-25T06:17:53.000Z</time>
      </trkpt>
      <trkpt lat="48.75424" lon="2.29717">
        <ele>65</ele>
        <time>2022-09-25T06:18:23.000Z</time>
      </trkpt>
      <trkpt lat="48.75472" lon="2.29734">
        <ele>64.400001525879</ele>
        <time>2022-09-25T06:18:48.000Z</time>
      </trkpt>
      <trkpt lat="48.75479" lon="2.29739">
        <ele>64.199996948242</ele>
        <time>2022-09-25T06:19:03.000Z</time>
      </trkpt>
      <trkpt lat="48.75463" lon="2.29806">
        <ele>64.199996948242</ele>
        <time>2022-09-25T06:19:38.000Z</time>
      </trkpt>
      <trkpt lat="48.75467" lon="2.29873">
        <ele>62.799999237061</ele>
        <time>2022-09-25T06:20:16.000Z</time>
      </trkpt>
      <trkpt lat="48.7545" lon="2.29923">
        <ele>61.599998474121</ele>
        <time>2022-09-25T06:21:15.000Z</time>
      </trkpt>
      <trkpt lat="48.75453" lon="2.29943">
        <ele>60.599998474121</ele>
        <time>2022-09-25T06:21:30.000Z</time>
      </trkpt>
      <trkpt lat="48.7546" lon="2.29946">
        <ele>60.400001525879</ele>
        <time>2022-09-25T06:21:36.000Z</time>
      </trkpt>
      <trkpt lat="48.75498" lon="2.29966">
        <ele>60.400001525879</ele>
        <time>2022-09-25T06:22:11.000Z</time>
      </trkpt>
      <trkpt lat="48.75523" lon="2.29934">
        <ele>62.599998474121</ele>
        <time>2022-09-25T06:22:35.000Z</time>
      </trkpt>
      <trkpt lat="48.75529" lon="2.29918">
        <ele>62.799999237061</ele>
        <time>2022-09-25T06:22:53.000Z</time>
      </trkpt>
      <trkpt lat="48.75527" lon="2.29901">
        <ele>62</ele>
        <time>2022-09-25T06:22:59.000Z</time>
      </trkpt>
      <trkpt lat="48.75526" lon="2.29881">
        <ele>62.3</ele>
        <time>2022-09-25T06:23:37.000Z</time>
      </trkpt>
      <trkpt lat="48.7553" lon="2.29856">
        <ele>63</ele>
        <time>2022-09-25T06:23:39.000Z</time>
      </trkpt>
      <trkpt lat="48.75542" lon="2.29823">
        <ele>63.9</ele>
      </trkpt>
      <trkpt lat="48.75546" lon="2.29811">
        <ele>64.5</ele>
      </trkpt>
      <trkpt lat="48.75554" lon="2.29811">
        <ele>64.7</ele>
        <time>2022-09-25T06:24:00.000Z</time>
      </trkpt>
      <trkpt lat="48.756" lon="2.29816">
        <ele>69.199996948242</ele>
        <time>2022-09-25T06:24:41.000Z</time>
      </trkpt>
      <trkpt lat="48.75624" lon="2.29817">
        <ele>68.400001525879</ele>
        <time>2022-09-25T06:25:04.000Z</time>
      </trkpt>
      <trkpt lat="48.75643" lon="2.29828">
        <ele>68</ele>
        <time>2022-09-25T06:25:26.000Z</time>
      </trkpt>
      <trkpt lat="48.75651" lon="2.29894">
        <ele>67.400001525879</ele>
        <time>2022-09-25T06:26:02.000Z</time>
      </trkpt>
      <trkpt lat="48.75657" lon="2.29907">
        <ele>66.800003051758</ele>
        <time>2022-09-25T06:26:19.000Z</time>
      </trkpt>
      <trkpt lat="48.75664" lon="2.29916">
        <ele>66</ele>
        <time>2022-09-25T06:26:38.000Z</time>
      </trkpt>
      <trkpt lat="48.75699" lon="2.29936">
        <ele>64</ele>
        <time>2022-09-25T06:27:18.000Z</time>
      </trkpt>
      <trkpt lat="48.75716" lon="2.29872">
        <ele>67.400001525879</ele>
        <time>2022-09-25T06:28:00.000Z</time>
      </trkpt>
      <trkpt lat="48.75743" lon="2.29815">
        <ele>71</ele>
        <time>2022-09-25T06:28:39.000Z</time>
      </trkpt>
      <trkpt lat="48.75775" lon="2.2977">
        <ele>72</ele>
        <time>2022-09-25T06:29:18.000Z</time>
      </trkpt>
      <trkpt lat="48.75807" lon="2.29718">
        <ele>70.400001525879</ele>
        <time>2022-09-25T06:29:58.000Z</time>
      </trkpt>
      <trkpt lat="48.75843" lon="2.2968">
        <ele>70.400001525879</ele>
        <time>2022-09-25T06:30:55.000Z</time>
      </trkpt>
      <trkpt lat="48.75862" lon="2.29653">
        <ele>71.599998474121</ele>
        <time>2022-09-25T06:31:18.000Z</time>
      </trkpt>
      <trkpt lat="48.75903" lon="2.29682">
        <ele>70.199996948242</ele>
        <time>2022-09-25T06:31:52.000Z</time>
      </trkpt>
      <trkpt lat="48.75934" lon="2.29732">
        <ele>69</ele>
        <time>2022-09-25T06:32:32.000Z</time>
      </trkpt>
      <trkpt lat="48.75961" lon="2.2978">
        <ele>68.800003051758</ele>
        <time>2022-09-25T06:33:09.000Z</time>
      </trkpt>
      <trkpt lat="48.75971" lon="2.29797">
        <ele>68.400001525879</ele>
        <time>2022-09-25T06:33:22.000Z</time>
      </trkpt>
      <trkpt lat="48.76006" lon="2.29787">
        <ele>67.400001525879</ele>
        <time>2022-09-25T06:34:04.000Z</time>
      </trkpt>
      <trkpt lat="48.76044" lon="2.29775">
        <ele>64.800003051758</ele>
        <time>2022-09-25T06:34:41.000Z</time>
      </trkpt>
      <trkpt lat="48.76061" lon="2.29838">
        <ele>62.200000762939</ele>
        <time>2022-09-25T06:35:17.000Z</time>
      </trkpt>
      <trkpt lat="48.76075" lon="2.29904">
        <ele>61.799999237061</ele>
        <time>2022-09-25T06:35:55.000Z</time>
      </trkpt>
      <trkpt lat="48.76091" lon="2.29968">
        <ele>61</ele>
        <time>2022-09-25T06:36:33.000Z</time>
      </trkpt>
      <trkpt lat="48.76095" lon="2.29992">
        <ele>60.599998474121</ele>
        <time>2022-09-25T06:36:47.000Z</time>
      </trkpt>
      <trkpt lat="48.76109" lon="2.30056">
        <ele>60.599998474121</ele>
        <time>2022-09-25T06:37:26.000Z</time>
      </trkpt>
      <trkpt lat="48.76142" lon="2.30085">
        <ele>60.400001525879</ele>
        <time>2022-09-25T06:38:08.000Z</time>
      </trkpt>
      <trkpt lat="48.76186" lon="2.30095">
        <ele>59.200000762939</ele>
        <time>2022-09-25T06:38:42.000Z</time>
      </trkpt>
      <trkpt lat="48.76199" lon="2.30099">
        <ele>58.799999237061</ele>
        <time>2022-09-25T06:38:50.000Z</time>
      </trkpt>
      <trkpt lat="48.76203" lon="2.30061">
        <ele>58</ele>
        <time>2022-09-25T06:39:15.000Z</time>
      </trkpt>
      <trkpt lat="48.76205" lon="2.30057">
        <ele>58</ele>
        <time>2022-09-25T06:39:19.000Z</time>
      </trkpt>
      <trkpt lat="48.76213" lon="2.30049">
        <ele>58</ele>
        <time>2022-09-25T06:39:29.000Z</time>
      </trkpt>
      <trkpt lat="48.76217" lon="2.30044">
        <ele>58</ele>
        <time>2022-09-25T06:39:35.000Z</time>
      </trkpt>
      <trkpt lat="48.76222" lon="2.30045">
        <ele>58</ele>
        <time>2022-09-25T06:39:39.000Z</time>
      </trkpt>
      <trkpt lat="48.76232" lon="2.30075">
        <ele>58</ele>
        <time>2022-09-25T06:40:04.000Z</time>
      </trkpt>
      <trkpt lat="48.76237" lon="2.30072">
        <ele>58.200000762939</ele>
        <time>2022-09-25T06:40:11.000Z</time>
      </trkpt>
      <trkpt lat="48.76241" lon="2.30071">
        <ele>58.400001525879</ele>
        <time>2022-09-25T06:40:16.000Z</time>
      </trkpt>
      <trkpt lat="48.76262" lon="2.3007">
        <ele>58.799999237061</ele>
        <time>2022-09-25T06:42:32.000Z</time>
      </trkpt>
      <trkpt lat="48.76272" lon="2.30065">
        <ele>59</ele>
        <time>2022-09-25T06:44:09.000Z</time>
      </trkpt>
      <trkpt lat="48.76305" lon="2.30026">
        <ele>58.200000762939</ele>
        <time>2022-09-25T06:44:47.000Z</time>
      </trkpt>
      <trkpt lat="48.76327" lon="2.29966">
        <ele>58</ele>
        <time>2022-09-25T06:45:23.000Z</time>
      </trkpt>
      <trkpt lat="48.76371" lon="2.29946">
        <ele>55.799999237061</ele>
        <time>2022-09-25T06:46:01.000Z</time>
      </trkpt>
      <trkpt lat="48.76415" lon="2.29931">
        <ele>58</ele>
        <time>2022-09-25T06:46:36.000Z</time>
      </trkpt>
      <trkpt lat="48.7646" lon="2.29916">
        <ele>61.400001525879</ele>
        <time>2022-09-25T06:47:21.000Z</time>
      </trkpt>
      <trkpt lat="48.76504" lon="2.29896">
        <ele>62.200000762939</ele>
        <time>2022-09-25T06:47:59.000Z</time>
      </trkpt>
      <trkpt lat="48.7655" lon="2.29882">
        <ele>61</ele>
        <time>2022-09-25T06:48:41.000Z</time>
      </trkpt>
      <trkpt lat="48.76594" lon="2.29865">
        <ele>59.200000762939</ele>
        <time>2022-09-25T06:49:19.000Z</time>
      </trkpt>
      <trkpt lat="48.76638" lon="2.29847">
        <ele>59.599998474121</ele>
        <time>2022-09-25T06:50:03.000Z</time>
      </trkpt>
      <trkpt lat="48.76683" lon="2.29835">
        <ele>57.599998474121</ele>
        <time>2022-09-25T06:50:37.000Z</time>
      </trkpt>
      <trkpt lat="48.76718" lon="2.29816">
        <ele>55.799999237061</ele>
        <time>2022-09-25T06:51:14.000Z</time>
      </trkpt>
      <trkpt lat="48.76724" lon="2.29804">
        <ele>56</ele>
        <time>2022-09-25T06:51:25.000Z</time>
      </trkpt>
      <trkpt lat="48.76716" lon="2.29773">
        <ele>57.599998474121</ele>
        <time>2022-09-25T06:51:49.000Z</time>
      </trkpt>
      <trkpt lat="48.76705" lon="2.29705">
        <ele>57.799999237061</ele>
        <time>2022-09-25T06:52:28.000Z</time>
      </trkpt>
      <trkpt lat="48.76696" lon="2.29638">
        <ele>59.200000762939</ele>
        <time>2022-09-25T06:53:09.000Z</time>
      </trkpt>
      <trkpt lat="48.76684" lon="2.29571">
        <ele>60.799999237061</ele>
        <time>2022-09-25T06:53:50.000Z</time>
      </trkpt>
      <trkpt lat="48.76674" lon="2.29503">
        <ele>63</ele>
        <time>2022-09-25T06:54:31.000Z</time>
      </trkpt>
      <trkpt lat="48.76677" lon="2.29437">
        <ele>62.799999237061</ele>
        <time>2022-09-25T06:55:12.000Z</time>
      </trkpt>
      <trkpt lat="48.76693" lon="2.29374">
        <ele>65</ele>
        <time>2022-09-25T06:55:53.000Z</time>
      </trkpt>
      <trkpt lat="48.76711" lon="2.29343">
        <ele>66.599998474121</ele>
        <time>2022-09-25T06:56:17.000Z</time>
      </trkpt>
      <trkpt lat="48.7671" lon="2.2933">
        <ele>68.199996948242</ele>
        <time>2022-09-25T06:56:26.000Z</time>
      </trkpt>
      <trkpt lat="48.76703" lon="2.29262">
        <ele>70.599998474121</ele>
        <time>2022-09-25T06:57:08.000Z</time>
      </trkpt>
      <trkpt lat="48.7669" lon="2.29196">
        <ele>69.400001525879</ele>
        <time>2022-09-25T06:57:49.000Z</time>
      </trkpt>
      <trkpt lat="48.76695" lon="2.29136">
        <ele>71.800003051758</ele>
        <time>2022-09-25T06:58:31.000Z</time>
      </trkpt>
      <trkpt lat="48.76707" lon="2.29103">
        <ele>71.800003051758</ele>
        <time>2022-09-25T06:58:57.000Z</time>
      </trkpt>
      <trkpt lat="48.76706" lon="2.29039">
        <ele>74</ele>
        <time>2022-09-25T06:59:40.000Z</time>
      </trkpt>
      <trkpt lat="48.76743" lon="2.28999">
        <ele>76.199996948242</ele>
        <time>2022-09-25T07:00:21.000Z</time>
      </trkpt>
      <trkpt lat="48.76784" lon="2.28965">
        <ele>78</ele>
        <time>2022-09-25T07:01:03.000Z</time>
      </trkpt>
      <trkpt lat="48.76824" lon="2.28932">
        <ele>79.800003051758</ele>
        <time>2022-09-25T07:01:44.000Z</time>
      </trkpt>
      <trkpt lat="48.76863" lon="2.28897">
        <ele>79.599998474121</ele>
        <time>2022-09-25T07:02:28.000Z</time>
      </trkpt>
      <trkpt lat="48.76903" lon="2.28865">
        <ele>80.199996948242</ele>
        <time>2022-09-25T07:03:11.000Z</time>
      </trkpt>
      <trkpt lat="48.76943" lon="2.28833">
        <ele>82.400001525879</ele>
        <time>2022-09-25T07:03:51.000Z</time>
      </trkpt>
      <trkpt lat="48.76983" lon="2.288">
        <ele>85.400001525879</ele>
        <time>2022-09-25T07:04:32.000Z</time>
      </trkpt>
      <trkpt lat="48.77022" lon="2.28764">
        <ele>87.400001525879</ele>
        <time>2022-09-25T07:05:10.000Z</time>
      </trkpt>
      <trkpt lat="48.77062" lon="2.28733">
        <ele>85.199996948242</ele>
        <time>2022-09-25T07:05:48.000Z</time>
      </trkpt>
      <trkpt lat="48.77103" lon="2.28703">
        <ele>83</ele>
        <time>2022-09-25T07:06:31.000Z</time>
      </trkpt>
      <trkpt lat="48.7714" lon="2.28688">
        <ele>82.199996948242</ele>
        <time>2022-09-25T07:08:32.000Z</time>
      </trkpt>
      <trkpt lat="48.77145" lon="2.2869">
        <ele>82</ele>
        <time>2022-09-25T07:08:36.000Z</time>
      </trkpt>
      <trkpt lat="48.7716" lon="2.28686">
        <ele>81</ele>
        <time>2022-09-25T07:08:52.000Z</time>
      </trkpt>
      <trkpt lat="48.77204" lon="2.28668">
        <ele>78.599998474121</ele>
        <time>2022-09-25T07:09:32.000Z</time>
      </trkpt>
      <trkpt lat="48.77249" lon="2.28656">
        <ele>77</ele>
        <time>2022-09-25T07:10:11.000Z</time>
      </trkpt>
      <trkpt lat="48.77274" lon="2.28627">
        <ele>77</ele>
        <time>2022-09-25T07:10:48.000Z</time>
      </trkpt>
      <trkpt lat="48.77282" lon="2.28583">
        <ele>76.800003051758</ele>
        <time>2022-09-25T07:11:22.000Z</time>
      </trkpt>
      <trkpt lat="48.77285" lon="2.28557">
        <ele>78.400001525879</ele>
        <time>2022-09-25T07:11:47.000Z</time>
      </trkpt>
      <trkpt lat="48.77287" lon="2.28546">
        <ele>79</ele>
        <time>2022-09-25T07:11:55.000Z</time>
      </trkpt>
      <trkpt lat="48.77324" lon="2.28514">
        <ele>79</ele>
        <time>2022-09-25T07:12:36.000Z</time>
      </trkpt>
      <trkpt lat="48.77369" lon="2.28514">
        <ele>77</ele>
        <time>2022-09-25T07:13:17.000Z</time>
      </trkpt>
      <trkpt lat="48.77408" lon="2.28485">
        <ele>73.599998474121</ele>
        <time>2022-09-25T07:13:58.000Z</time>
      </trkpt>
      <trkpt lat="48.77426" lon="2.2844">
        <ele>73.199996948242</ele>
        <time>2022-09-25T07:14:32.000Z</time>
      </trkpt>
      <trkpt lat="48.77397" lon="2.28387">
        <ele>74</ele>
        <time>2022-09-25T07:15:17.000Z</time>
      </trkpt>
      <trkpt lat="48.77367" lon="2.28335">
        <ele>76.199996948242</ele>
        <time>2022-09-25T07:15:58.000Z</time>
      </trkpt>
      <trkpt lat="48.77336" lon="2.28285">
        <ele>78.599998474121</ele>
        <time>2022-09-25T07:16:40.000Z</time>
      </trkpt>
      <trkpt lat="48.77307" lon="2.28233">
        <ele>81.800003051758</ele>
        <time>2022-09-25T07:17:23.000Z</time>
      </trkpt>
      <trkpt lat="48.77281" lon="2.28176">
        <ele>84.199996948242</ele>
        <time>2022-09-25T07:18:03.000Z</time>
      </trkpt>
      <trkpt lat="48.77267" lon="2.28117">
        <ele>84.599998474121</ele>
        <time>2022-09-25T07:18:44.000Z</time>
      </trkpt>
      <trkpt lat="48.77306" lon="2.28082">
        <ele>81.599998474121</ele>
        <time>2022-09-25T07:19:29.000Z</time>
      </trkpt>
      <trkpt lat="48.77309" lon="2.2802">
        <ele>83.400001525879</ele>
        <time>2022-09-25T07:20:12.000Z</time>
      </trkpt>
      <trkpt lat="48.77308" lon="2.2797">
        <ele>84.199996948242</ele>
        <time>2022-09-25T07:20:51.000Z</time>
      </trkpt>
      <trkpt lat="48.77296" lon="2.27903">
        <ele>86.199996948242</ele>
        <time>2022-09-25T07:21:38.000Z</time>
      </trkpt>
      <trkpt lat="48.77287" lon="2.27836">
        <ele>87.199996948242</ele>
        <time>2022-09-25T07:22:17.000Z</time>
      </trkpt>
      <trkpt lat="48.77279" lon="2.2777">
        <ele>86.199996948242</ele>
        <time>2022-09-25T07:22:58.000Z</time>
      </trkpt>
      <trkpt lat="48.77278" lon="2.27701">
        <ele>86.199996948242</ele>
        <time>2022-09-25T07:23:39.000Z</time>
      </trkpt>
      <trkpt lat="48.77283" lon="2.27633">
        <ele>87.199996948242</ele>
        <time>2022-09-25T07:24:16.000Z</time>
      </trkpt>
      <trkpt lat="48.77273" lon="2.27568">
        <ele>90.199996948242</ele>
        <time>2022-09-25T07:24:56.000Z</time>
      </trkpt>
      <trkpt lat="48.77291" lon="2.27506">
        <ele>91.199996948242</ele>
        <time>2022-09-25T07:25:39.000Z</time>
      </trkpt>
      <trkpt lat="48.77293" lon="2.27438">
        <ele>90.599998474121</ele>
        <time>2022-09-25T07:26:16.000Z</time>
      </trkpt>
      <trkpt lat="48.77291" lon="2.27372">
        <ele>91.199996948242</ele>
        <time>2022-09-25T07:26:56.000Z</time>
      </trkpt>
      <trkpt lat="48.77283" lon="2.27305">
        <ele>94.199996948242</ele>
        <time>2022-09-25T07:27:34.000Z</time>
      </trkpt>
      <trkpt lat="48.77288" lon="2.27239">
        <ele>97.199996948242</ele>
        <time>2022-09-25T07:28:16.000Z</time>
      </trkpt>
      <trkpt lat="48.77301" lon="2.27176">
        <ele>97.199996948242</ele>
        <time>2022-09-25T07:28:58.000Z</time>
      </trkpt>
      <trkpt lat="48.77321" lon="2.27113">
        <ele>95.800003051758</ele>
        <time>2022-09-25T07:29:38.000Z</time>
      </trkpt>
      <trkpt lat="48.77325" lon="2.27098">
        <ele>97.199996948242</ele>
        <time>2022-09-25T07:29:52.000Z</time>
      </trkpt>
      <trkpt lat="48.77352" lon="2.27043">
        <ele>102</ele>
        <time>2022-09-25T07:30:30.000Z</time>
      </trkpt>
      <trkpt lat="48.77385" lon="2.26997">
        <ele>104</ele>
        <time>2022-09-25T07:31:10.000Z</time>
      </trkpt>
      <trkpt lat="48.7738" lon="2.2698">
        <ele>103.80000305176</ele>
        <time>2022-09-25T07:31:30.000Z</time>
      </trkpt>
      <trkpt lat="48.77377" lon="2.26977">
        <ele>103.59999847412</ele>
        <time>2022-09-25T07:31:33.000Z</time>
      </trkpt>
      <trkpt lat="48.77376" lon="2.26911">
        <ele>107</ele>
        <time>2022-09-25T07:32:17.000Z</time>
      </trkpt>
      <trkpt lat="48.77391" lon="2.26847">
        <ele>109.59999847412</ele>
        <time>2022-09-25T07:32:59.000Z</time>
      </trkpt>
      <trkpt lat="48.77381" lon="2.26812">
        <ele>110.19999694824</ele>
        <time>2022-09-25T07:33:30.000Z</time>
      </trkpt>
      <trkpt lat="48.77377" lon="2.26807">
        <ele>110</ele>
        <time>2022-09-25T07:33:35.000Z</time>
      </trkpt>
      <trkpt lat="48.77367" lon="2.26781">
        <ele>111.40000152588</ele>
        <time>2022-09-25T07:33:59.000Z</time>
      </trkpt>
      <trkpt lat="48.77347" lon="2.26754">
        <ele>113.19999694824</ele>
        <time>2022-09-25T07:34:25.000Z</time>
      </trkpt>
      <trkpt lat="48.77356" lon="2.26717">
        <ele>119.40000152588</ele>
        <time>2022-09-25T07:34:56.000Z</time>
      </trkpt>
      <trkpt lat="48.77358" lon="2.26712">
        <ele>120.19999694824</ele>
        <time>2022-09-25T07:34:59.000Z</time>
      </trkpt>
      <trkpt lat="48.77379" lon="2.26649">
        <ele>127.19999694824</ele>
        <time>2022-09-25T07:35:47.000Z</time>
      </trkpt>
      <trkpt lat="48.7741" lon="2.2664">
        <ele>129.80000305176</ele>
        <time>2022-09-25T07:36:29.000Z</time>
      </trkpt>
      <trkpt lat="48.7741" lon="2.26656">
        <ele>129.19999694824</ele>
        <time>2022-09-25T07:36:37.000Z</time>
      </trkpt>
      <trkpt lat="48.77419" lon="2.26719">
        <ele>125.80000305176</ele>
        <time>2022-09-25T07:37:21.000Z</time>
      </trkpt>
      <trkpt lat="48.77423" lon="2.2672">
        <ele>126.19999694824</ele>
        <time>2022-09-25T07:37:24.000Z</time>
      </trkpt>
      <trkpt lat="48.77467" lon="2.26727">
        <ele>130</ele>
        <time>2022-09-25T07:38:13.000Z</time>
      </trkpt>
      <trkpt lat="48.77468" lon="2.26727">
        <ele>130.19999694824</ele>
        <time>2022-09-25T07:38:14.000Z</time>
      </trkpt>
      <trkpt lat="48.77513" lon="2.26724">
        <ele>133.19999694824</ele>
        <time>2022-09-25T07:38:55.000Z</time>
      </trkpt>
      <trkpt lat="48.77558" lon="2.26717">
        <ele>136.39999389648</ele>
        <time>2022-09-25T07:39:38.000Z</time>
      </trkpt>
      <trkpt lat="48.77544" lon="2.26707">
        <ele>137.39999389648</ele>
        <time>2022-09-25T07:40:45.000Z</time>
      </trkpt>
      <trkpt lat="48.77536" lon="2.26703">
        <ele>137.60000610352</ele>
        <time>2022-09-25T07:40:54.000Z</time>
      </trkpt>
      <trkpt lat="48.775" lon="2.26693">
        <ele>139</ele>
        <time>2022-09-25T07:41:33.000Z</time>
      </trkpt>
      <trkpt lat="48.77519" lon="2.26653">
        <ele>145.60000610352</ele>
        <time>2022-09-25T07:42:49.000Z</time>
      </trkpt>
      <trkpt lat="48.77523" lon="2.2665">
        <ele>146.39999389648</ele>
        <time>2022-09-25T07:42:53.000Z</time>
      </trkpt>
      <trkpt lat="48.77537" lon="2.26627">
        <ele>151.19999694824</ele>
        <time>2022-09-25T07:43:18.000Z</time>
      </trkpt>
      <trkpt lat="48.77565" lon="2.2658">
        <ele>157.19999694824</ele>
        <time>2022-09-25T07:44:53.000Z</time>
      </trkpt>
      <trkpt lat="48.77582" lon="2.26561">
        <ele>160</ele>
        <time>2022-09-25T07:45:20.000Z</time>
      </trkpt>
      <trkpt lat="48.77615" lon="2.26534">
        <ele>166</ele>
        <time>2022-09-25T07:46:14.000Z</time>
      </trkpt>
      <trkpt lat="48.77617" lon="2.26539">
        <ele>166.19999694824</ele>
        <time>2022-09-25T07:46:18.000Z</time>
      </trkpt>
      <trkpt lat="48.77645" lon="2.26594">
        <ele>165</ele>
        <time>2022-09-25T07:46:54.000Z</time>
      </trkpt>
      <trkpt lat="48.77683" lon="2.26629">
        <ele>162.80000305176</ele>
        <time>2022-09-25T07:47:34.000Z</time>
      </trkpt>
      <trkpt lat="48.77715" lon="2.26677">
        <ele>158</ele>
        <time>2022-09-25T07:48:13.000Z</time>
      </trkpt>
      <trkpt lat="48.77719" lon="2.26695">
        <ele>155.19999694824</ele>
        <time>2022-09-25T07:48:27.000Z</time>
      </trkpt>
      <trkpt lat="48.77736" lon="2.26744">
        <ele>150.39999389648</ele>
        <time>2022-09-25T07:49:02.000Z</time>
      </trkpt>
      <trkpt lat="48.77763" lon="2.26741">
        <ele>157.39999389648</ele>
        <time>2022-09-25T07:50:00.000Z</time>
      </trkpt>
      <trkpt lat="48.77767" lon="2.26747">
        <ele>157.80000305176</ele>
        <time>2022-09-25T07:50:06.000Z</time>
      </trkpt>
      <trkpt lat="48.77775" lon="2.26764">
        <ele>158.39999389648</ele>
        <time>2022-09-25T07:50:42.000Z</time>
      </trkpt>
      <trkpt lat="48.77805" lon="2.26816">
        <ele>157.80000305176</ele>
        <time>2022-09-25T07:51:20.000Z</time>
      </trkpt>
      <trkpt lat="48.77826" lon="2.26863">
        <ele>156.80000305176</ele>
        <time>2022-09-25T07:53:09.000Z</time>
      </trkpt>
      <trkpt lat="48.77824" lon="2.26858">
        <ele>157</ele>
        <time>2022-09-25T07:55:31.000Z</time>
      </trkpt>
    </trkseg>
  </trk>
</gpx>